Terminal Aerodrome Forecast
Issued by NWS Wakefield, VA

Home | Current Version | Previous Version | Text Only | Print | Product List | Glossary On
Versions: 1 2 3 4 5 6 7 8 9 10 11 12 13 14
000
FTUS41 KAKQ 011100
TAFRIC
TAF
KRIC 011120Z 0112/0212 15005KT P6SM -RA SCT030 BKN060 OVC120
      TEMPO 0112/0116 4SM -RA BR BKN030
     FM011600 10006KT P6SM VCSH BKN040 OVC080
     FM012200 07005KT P6SM OVC030
     FM020600 04004KT 5SM BR OVC015=

USA.gov is the U.S. government's official web portal to all federal, state and local government web resources and services.